sensor_id;sensor_type;location;lat;lon;timestamp;pressure;altitude;pressure_sealevel;temperature;humidity
75089;BME280;63673;49.928;8.150;2023-02-28T00:00:12;1001.52;;;-1.26;94.38
75089;BME280;63673;49.928;8.150;2023-02-28T00:01:13;1001.51;;;-1.26;94.32
75089;BME280;63673;49.928;8.150;2023-02-28T00:02:15;1001.51;;;-1.26;94.43
75089;BME280;63673;49.928;8.150;2023-02-28T00:03:16;1001.54;;;-1.27;94.11
75089;BME280;63673;49.928;8.150;2023-02-28T00:04:18;1001.49;;;-1.28;94.05
75089;BME280;63673;49.928;8.150;2023-02-28T00:05:20;1001.47;;;-1.28;94.96
75089;BME280;63673;49.928;8.150;2023-02-28T00:06:21;1001.5;;;-1.29;94.72
75089;BME280;63673;49.928;8.150;2023-02-28T00:07:23;1001.5;;;-1.3;94.56
75089;BME280;63673;49.928;8.150;2023-02-28T00:08:25;1001.47;;;-1.32;94.89
75089;BME280;63673;49.928;8.150;2023-02-28T00:09:27;1001.49;;;-1.32;95.01
75089;BME280;63673;49.928;8.150;2023-02-28T00:10:31;1001.49;;;-1.32;95.47
75089;BME280;63673;49.928;8.150;2023-02-28T00:11:30;1001.55;;;-1.33;95.37
75089;BME280;63673;49.928;8.150;2023-02-28T00:12:32;1001.54;;;-1.33;95.73
75089;BME280;63673;49.928;8.150;2023-02-28T00:13:34;1001.5;;;-1.33;95.72
75089;BME280;63673;49.928;8.150;2023-02-28T00:14:35;1001.44;;;-1.32;95.45
75089;BME280;63673;49.928;8.150;2023-02-28T00:15:37;1001.46;;;-1.32;95.8
75089;BME280;63673;49.928;8.150;2023-02-28T00:16:39;1001.51;;;-1.33;95.7
75089;BME280;63673;49.928;8.150;2023-02-28T00:17:41;1001.49;;;-1.33;95.7
75089;BME280;63673;49.928;8.150;2023-02-28T00:18:42;1001.48;;;-1.32;96.01
75089;BME280;63673;49.928;8.150;2023-02-28T00:19:44;1001.46;;;-1.31;95.72
75089;BME280;63673;49.928;8.150;2023-02-28T00:20:46;1001.49;;;-1.32;96.25
75089;BME280;63673;49.928;8.150;2023-02-28T00:21:47;1001.49;;;-1.32;96.28
75089;BME280;63673;49.928;8.150;2023-02-28T00:22:50;1001.44;;;-1.3;95.92
75089;BME280;63673;49.928;8.150;2023-02-28T00:23:51;1001.45;;;-1.31;96.43
75089;BME280;63673;49.928;8.150;2023-02-28T00:24:53;1001.44;;;-1.28;96.34
75089;BME280;63673;49.928;8.150;2023-02-28T00:25:55;1001.49;;;-1.28;96.13
75089;BME280;63673;49.928;8.150;2023-02-28T00:26:56;1001.48;;;-1.28;95.91
75089;BME280;63673;49.928;8.150;2023-02-28T00:27:58;1001.48;;;-1.26;95.73
75089;BME280;63673;49.928;8.150;2023-02-28T00:29:00;1001.48;;;-1.25;95.8
75089;BME280;63673;49.928;8.150;2023-02-28T00:30:02;1001.42;;;-1.23;95.82
75089;BME280;63673;49.928;8.150;2023-02-28T00:31:03;1001.46;;;-1.21;95.7
75089;BME280;63673;49.928;8.150;2023-02-28T00:32:05;1001.5;;;-1.2;96.85
75089;BME280;63673;49.928;8.150;2023-02-28T00:33:07;1001.49;;;-1.2;96.34
75089;BME280;63673;49.928;8.150;2023-02-28T00:34:08;1001.43;;;-1.19;96.27
75089;BME280;63673;49.928;8.150;2023-02-28T00:35:10;1001.46;;;-1.18;96.09
75089;BME280;63673;49.928;8.150;2023-02-28T00:36:12;1001.48;;;-1.15;95.85
75089;BME280;63673;49.928;8.150;2023-02-28T00:37:14;1001.52;;;-1.14;96.02
75089;BME280;63673;49.928;8.150;2023-02-28T00:38:15;1001.42;;;-1.12;95.67
75089;BME280;63673;49.928;8.150;2023-02-28T00:39:17;1001.5;;;-1.11;96.04
75089;BME280;63673;49.928;8.150;2023-02-28T00:40:19;1001.46;;;-1.11;95.77
75089;BME280;63673;49.928;8.150;2023-02-28T00:41:20;1001.48;;;-1.09;95.74
75089;BME280;63673;49.928;8.150;2023-02-28T00:42:22;1001.47;;;-1.08;96.39
75089;BME280;63673;49.928;8.150;2023-02-28T00:43:24;1001.44;;;-1.07;96.13
75089;BME280;63673;49.928;8.150;2023-02-28T00:44:26;1001.35;;;-1.06;95.71
75089;BME280;63673;49.928;8.150;2023-02-28T00:45:27;1001.37;;;-1.05;95.78
75089;BME280;63673;49.928;8.150;2023-02-28T00:46:29;1001.41;;;-1.04;95.76
75089;BME280;63673;49.928;8.150;2023-02-28T00:47:31;1001.44;;;-1.05;95.77
75089;BME280;63673;49.928;8.150;2023-02-28T00:48:33;1001.34;;;-1.05;95.91
75089;BME280;63673;49.928;8.150;2023-02-28T00:49:34;1001.37;;;-1.04;96.08
75089;BME280;63673;49.928;8.150;2023-02-28T00:50:36;1001.38;;;-1.02;96.22
75089;BME280;63673;49.928;8.150;2023-02-28T00:51:38;1001.42;;;-1.04;96.28
75089;BME280;63673;49.928;8.150;2023-02-28T00:52:39;1001.36;;;-1.04;96.44
75089;BME280;63673;49.928;8.150;2023-02-28T00:53:41;1001.33;;;-1.04;96.33
75089;BME280;63673;49.928;8.150;2023-02-28T00:54:43;1001.34;;;-1.05;96.35
75089;BME280;63673;49.928;8.150;2023-02-28T00:55:45;1001.32;;;-1.06;96.88
75089;BME280;63673;49.928;8.150;2023-02-28T00:56:47;1001.37;;;-1.07;96.82
75089;BME280;63673;49.928;8.150;2023-02-28T00:57:48;1001.37;;;-1.06;96.99
75089;BME280;63673;49.928;8.150;2023-02-28T00:58:50;1001.38;;;-1.08;97.18
75089;BME280;63673;49.928;8.150;2023-02-28T00:59:52;1001.41;;;-1.07;97.54
75089;BME280;63673;49.928;8.150;2023-02-28T01:00:54;1001.38;;;-1.08;97.38
75089;BME280;63673;49.928;8.150;2023-02-28T01:01:55;1001.38;;;-1.08;98.37
75089;BME280;63673;49.928;8.150;2023-02-28T01:02:56;1001.42;;;-1.07;98.17
75089;BME280;63673;49.928;8.150;2023-02-28T01:03:59;1001.36;;;-1.08;98.62
75089;BME280;63673;49.928;8.150;2023-02-28T01:05:00;1001.35;;;-1.09;98.5
75089;BME280;63673;49.928;8.150;2023-02-28T01:06:02;1001.37;;;-1.08;98.96
75089;BME280;63673;49.928;8.150;2023-02-28T01:07:04;1001.45;;;-1.08;99.16
75089;BME280;63673;49.928;8.150;2023-02-28T01:08:06;1001.41;;;-1.1;99.56
75089;BME280;63673;49.928;8.150;2023-02-28T01:09:07;1001.41;;;-1.11;99.63
75089;BME280;63673;49.928;8.150;2023-02-28T01:10:09;1001.42;;;-1.12;100
75089;BME280;63673;49.928;8.150;2023-02-28T01:11:11;1001.35;;;-1.12;100
75089;BME280;63673;49.928;8.150;2023-02-28T01:12:14;1001.41;;;-1.12;100
75089;BME280;63673;49.928;8.150;2023-02-28T01:13:14;1001.36;;;-1.11;100
75089;BME280;63673;49.928;8.150;2023-02-28T01:14:16;1001.39;;;-1.13;100
75089;BME280;63673;49.928;8.150;2023-02-28T01:15:18;1001.38;;;-1.13;100
75089;BME280;63673;49.928;8.150;2023-02-28T01:16:19;1001.38;;;-1.12;100
75089;BME280;63673;49.928;8.150;2023-02-28T01:17:21;1001.39;;;-1.13;100
75089;BME280;63673;49.928;8.150;2023-02-28T01:18:23;1001.33;;;-1.12;100
75089;BME280;63673;49.928;8.150;2023-02-28T01:19:25;1001.39;;;-1.13;100
75089;BME280;63673;49.928;8.150;2023-02-28T01:20:27;1001.39;;;-1.13;100
75089;BME280;63673;49.928;8.150;2023-02-28T01:21:28;1001.4;;;-1.13;100
75089;BME280;63673;49.928;8.150;2023-02-28T01:22:30;1001.36;;;-1.15;100
75089;BME280;63673;49.928;8.150;2023-02-28T01:23:32;1001.35;;;-1.15;100
75089;BME280;63673;49.928;8.150;2023-02-28T01:24:33;1001.35;;;-1.16;100
75089;BME280;63673;49.928;8.150;2023-02-28T01:25:35;1001.43;;;-1.17;100
75089;BME280;63673;49.928;8.150;2023-02-28T01:26:37;1001.34;;;-1.18;100
75089;BME280;63673;49.928;8.150;2023-02-28T01:27:38;1001.36;;;-1.18;100
75089;BME280;63673;49.928;8.150;2023-02-28T01:28:40;1001.33;;;-1.2;100
75089;BME280;63673;49.928;8.150;2023-02-28T01:29:42;1001.34;;;-1.21;100
75089;BME280;63673;49.928;8.150;2023-02-28T01:30:47;1001.31;;;-1.21;100
75089;BME280;63673;49.928;8.150;2023-02-28T01:31:45;1001.36;;;-1.23;100
75089;BME280;63673;49.928;8.150;2023-02-28T01:32:47;1001.38;;;-1.25;100
75089;BME280;63673;49.928;8.150;2023-02-28T01:33:49;1001.3;;;-1.25;100
75089;BME280;63673;49.928;8.150;2023-02-28T01:34:51;1001.33;;;-1.26;100
75089;BME280;63673;49.928;8.150;2023-02-28T01:35:57;1001.32;;;-1.27;100
75089;BME280;63673;49.928;8.150;2023-02-28T01:36:54;1001.36;;;-1.28;100
75089;BME280;63673;49.928;8.150;2023-02-28T01:37:56;1001.29;;;-1.28;100
75089;BME280;63673;49.928;8.150;2023-02-28T01:38:58;1001.31;;;-1.3;100
75089;BME280;63673;49.928;8.150;2023-02-28T01:39:59;1001.31;;;-1.3;100
75089;BME280;63673;49.928;8.150;2023-02-28T01:41:01;1001.37;;;-1.3;100
75089;BME280;63673;49.928;8.150;2023-02-28T01:42:03;1001.32;;;-1.3;100
75089;BME280;63673;49.928;8.150;2023-02-28T01:43:05;1001.31;;;-1.31;100
75089;BME280;63673;49.928;8.150;2023-02-28T01:44:07;1001.31;;;-1.33;100
75089;BME280;63673;49.928;8.150;2023-02-28T01:45:16;1001.31;;;-1.34;100
75089;BME280;63673;49.928;8.150;2023-02-28T01:46:10;1001.31;;;-1.35;100
75089;BME280;63673;49.928;8.150;2023-02-28T01:47:11;1001.31;;;-1.36;100
75089;BME280;63673;49.928;8.150;2023-02-28T01:48:13;1001.31;;;-1.36;100
75089;BME280;63673;49.928;8.150;2023-02-28T01:49:15;1001.31;;;-1.39;100
75089;BME280;63673;49.928;8.150;2023-02-28T01:50:18;1001.23;;;-1.4;100
75089;BME280;63673;49.928;8.150;2023-02-28T01:51:19;1001.26;;;-1.4;100
75089;BME280;63673;49.928;8.150;2023-02-28T01:52:20;1001.28;;;-1.4;100
75089;BME280;63673;49.928;8.150;2023-02-28T01:53:23;1001.3;;;-1.42;100
75089;BME280;63673;49.928;8.150;2023-02-28T01:54:25;1001.33;;;-1.42;100
75089;BME280;63673;49.928;8.150;2023-02-28T01:55:26;1001.27;;;-1.42;100
75089;BME280;63673;49.928;8.150;2023-02-28T01:56:27;1001.31;;;-1.44;100
75089;BME280;63673;49.928;8.150;2023-02-28T01:57:30;1001.28;;;-1.43;100
75089;BME280;63673;49.928;8.150;2023-02-28T01:58:30;1001.31;;;-1.44;100
75089;BME280;63673;49.928;8.150;2023-02-28T01:59:33;1001.26;;;-1.46;100
75089;BME280;63673;49.928;8.150;2023-02-28T02:00:34;1001.29;;;-1.46;100
75089;BME280;63673;49.928;8.150;2023-02-28T02:01:36;1001.27;;;-1.47;100
75089;BME280;63673;49.928;8.150;2023-02-28T02:02:37;1001.2;;;-1.47;100
75089;BME280;63673;49.928;8.150;2023-02-28T02:03:39;1001.26;;;-1.49;100
75089;BME280;63673;49.928;8.150;2023-02-28T02:04:41;1001.21;;;-1.5;100
75089;BME280;63673;49.928;8.150;2023-02-28T02:05:43;1001.27;;;-1.5;100
75089;BME280;63673;49.928;8.150;2023-02-28T02:06:45;1001.22;;;-1.51;100
75089;BME280;63673;49.928;8.150;2023-02-28T02:07:46;1001.18;;;-1.52;100
75089;BME280;63673;49.928;8.150;2023-02-28T02:08:48;1001.2;;;-1.53;100
75089;BME280;63673;49.928;8.150;2023-02-28T02:09:50;1001.24;;;-1.53;100
75089;BME280;63673;49.928;8.150;2023-02-28T02:10:52;1001.23;;;-1.53;100
75089;BME280;63673;49.928;8.150;2023-02-28T02:11:53;1001.27;;;-1.54;100
75089;BME280;63673;49.928;8.150;2023-02-28T02:13:01;1001.19;;;-1.54;100
75089;BME280;63673;49.928;8.150;2023-02-28T02:14:01;1001.24;;;-1.55;100
75089;BME280;63673;49.928;8.150;2023-02-28T02:15:00;1001.17;;;-1.55;100
75089;BME280;63673;49.928;8.150;2023-02-28T02:16:03;1001.18;;;-1.56;100
75089;BME280;63673;49.928;8.150;2023-02-28T02:17:05;1001.16;;;-1.56;100
75089;BME280;63673;49.928;8.150;2023-02-28T02:18:04;1001.18;;;-1.57;100
75089;BME280;63673;49.928;8.150;2023-02-28T02:19:09;1001.16;;;-1.58;100
75089;BME280;63673;49.928;8.150;2023-02-28T02:20:46;1001.18;;;-1.58;100
75089;BME280;63673;49.928;8.150;2023-02-28T02:21:18;1001.16;;;-1.58;100
75089;BME280;63673;49.928;8.150;2023-02-28T02:22:31;1001.14;;;-1.59;100
75089;BME280;63673;49.928;8.150;2023-02-28T02:23:18;1001.05;;;-1.62;100
75089;BME280;63673;49.928;8.150;2023-02-28T02:25:18;1001.09;;;-1.64;100
75089;BME280;63673;49.928;8.150;2023-02-28T02:26:25;1001.1;;;-1.65;100
75089;BME280;63673;49.928;8.150;2023-02-28T02:27:20;1001.11;;;-1.66;100
75089;BME280;63673;49.928;8.150;2023-02-28T02:28:29;1001.12;;;-1.67;100
75089;BME280;63673;49.928;8.150;2023-02-28T02:29:30;1001.03;;;-1.68;100
75089;BME280;63673;49.928;8.150;2023-02-28T02:30:33;1001.08;;;-1.69;100
75089;BME280;63673;49.928;8.150;2023-02-28T02:31:29;1001.08;;;-1.7;100
75089;BME280;63673;49.928;8.150;2023-02-28T02:32:37;1001.06;;;-1.72;100
75089;BME280;63673;49.928;8.150;2023-02-28T02:33:34;1001.1;;;-1.73;100
75089;BME280;63673;49.928;8.150;2023-02-28T02:34:35;1001.17;;;-1.73;100
75089;BME280;63673;49.928;8.150;2023-02-28T02:35:34;1001.14;;;-1.73;100
75089;BME280;63673;49.928;8.150;2023-02-28T02:36:35;1001.16;;;-1.74;100
75089;BME280;63673;49.928;8.150;2023-02-28T02:37:37;1001.13;;;-1.75;100
75089;BME280;63673;49.928;8.150;2023-02-28T02:38:39;1001.18;;;-1.76;100
75089;BME280;63673;49.928;8.150;2023-02-28T02:39:41;1001.13;;;-1.77;100
75089;BME280;63673;49.928;8.150;2023-02-28T02:40:42;1001.15;;;-1.78;100
75089;BME280;63673;49.928;8.150;2023-02-28T02:41:45;1001.13;;;-1.77;100
75089;BME280;63673;49.928;8.150;2023-02-28T02:42:47;1001.11;;;-1.78;100
75089;BME280;63673;49.928;8.150;2023-02-28T02:43:47;1001.13;;;-1.8;100
75089;BME280;63673;49.928;8.150;2023-02-28T02:44:49;1001.12;;;-1.81;100
75089;BME280;63673;49.928;8.150;2023-02-28T02:45:51;1001.12;;;-1.81;100
75089;BME280;63673;49.928;8.150;2023-02-28T02:46:53;1001.14;;;-1.8;100
75089;BME280;63673;49.928;8.150;2023-02-28T02:47:54;1001.08;;;-1.82;100
75089;BME280;63673;49.928;8.150;2023-02-28T02:48:55;1001.09;;;-1.81;100
75089;BME280;63673;49.928;8.150;2023-02-28T02:49:57;1001.06;;;-1.81;100
75089;BME280;63673;49.928;8.150;2023-02-28T02:50:59;1001.09;;;-1.82;100
75089;BME280;63673;49.928;8.150;2023-02-28T02:52:02;1001.07;;;-1.81;100
75089;BME280;63673;49.928;8.150;2023-02-28T02:53:02;1001.07;;;-1.81;100
75089;BME280;63673;49.928;8.150;2023-02-28T02:54:05;1001.11;;;-1.82;100
75089;BME280;63673;49.928;8.150;2023-02-28T02:55:06;1001.14;;;-1.83;100
75089;BME280;63673;49.928;8.150;2023-02-28T02:56:07;1001.06;;;-1.83;100
75089;BME280;63673;49.928;8.150;2023-02-28T02:57:11;1001.15;;;-1.83;100
75089;BME280;63673;49.928;8.150;2023-02-28T02:58:13;1001.13;;;-1.83;100
75089;BME280;63673;49.928;8.150;2023-02-28T02:59:13;1001.09;;;-1.84;100
75089;BME280;63673;49.928;8.150;2023-02-28T03:00:15;1001.16;;;-1.83;100
75089;BME280;63673;49.928;8.150;2023-02-28T03:01:17;1001.12;;;-1.84;100
75089;BME280;63673;49.928;8.150;2023-02-28T03:02:18;1001.15;;;-1.84;100
75089;BME280;63673;49.928;8.150;2023-02-28T03:03:20;1001.1;;;-1.84;100
75089;BME280;63673;49.928;8.150;2023-02-28T03:04:22;1001.15;;;-1.84;100
75089;BME280;63673;49.928;8.150;2023-02-28T03:05:23;1001.2;;;-1.86;100
75089;BME280;63673;49.928;8.150;2023-02-28T03:06:25;1001.1;;;-1.86;100
75089;BME280;63673;49.928;8.150;2023-02-28T03:07:26;1001.19;;;-1.89;100
75089;BME280;63673;49.928;8.150;2023-02-28T03:08:29;1001.06;;;-1.87;100
75089;BME280;63673;49.928;8.150;2023-02-28T03:09:32;1001.16;;;-1.89;100
75089;BME280;63673;49.928;8.150;2023-02-28T03:10:33;1001.12;;;-1.89;100
75089;BME280;63673;49.928;8.150;2023-02-28T03:11:34;1001.11;;;-1.9;100
75089;BME280;63673;49.928;8.150;2023-02-28T03:12:40;1001.11;;;-1.9;100
75089;BME280;63673;49.928;8.150;2023-02-28T03:13:42;1001.08;;;-1.9;100
75089;BME280;63673;49.928;8.150;2023-02-28T03:14:41;1001.08;;;-1.91;100
75089;BME280;63673;49.928;8.150;2023-02-28T03:15:43;1001.05;;;-1.91;100
75089;BME280;63673;49.928;8.150;2023-02-28T03:16:47;1001.05;;;-1.91;100
75089;BME280;63673;49.928;8.150;2023-02-28T03:17:47;1001;;;-1.92;100
75089;BME280;63673;49.928;8.150;2023-02-28T03:18:48;1001.04;;;-1.91;100
75089;BME280;63673;49.928;8.150;2023-02-28T03:19:51;1001.08;;;-1.92;100
75089;BME280;63673;49.928;8.150;2023-02-28T03:20:50;1001.09;;;-1.92;100
75089;BME280;63673;49.928;8.150;2023-02-28T03:21:53;1001.06;;;-1.94;100
75089;BME280;63673;49.928;8.150;2023-02-28T03:22:55;1001.01;;;-1.93;100
75089;BME280;63673;49.928;8.150;2023-02-28T03:23:56;1000.99;;;-1.92;100
75089;BME280;63673;49.928;8.150;2023-02-28T03:24:57;1001.01;;;-1.94;100
75089;BME280;63673;49.928;8.150;2023-02-28T03:25:59;1001.03;;;-1.93;100
75089;BME280;63673;49.928;8.150;2023-02-28T03:27:03;1001.01;;;-1.94;100
75089;BME280;63673;49.928;8.150;2023-02-28T03:28:03;1001.01;;;-1.95;100
75089;BME280;63673;49.928;8.150;2023-02-28T03:29:05;1001.01;;;-1.94;100
75089;BME280;63673;49.928;8.150;2023-02-28T03:30:06;1000.93;;;-1.96;100
75089;BME280;63673;49.928;8.150;2023-02-28T03:31:07;1000.98;;;-1.95;100
75089;BME280;63673;49.928;8.150;2023-02-28T03:32:13;1000.99;;;-1.97;100
75089;BME280;63673;49.928;8.150;2023-02-28T03:33:10;1001;;;-1.96;100
75089;BME280;63673;49.928;8.150;2023-02-28T03:34:12;1001.02;;;-1.98;100
75089;BME280;63673;49.928;8.150;2023-02-28T03:35:14;1000.97;;;-1.97;100
75089;BME280;63673;49.928;8.150;2023-02-28T03:36:17;1000.99;;;-1.98;100
75089;BME280;63673;49.928;8.150;2023-02-28T03:37:18;1000.96;;;-1.97;100
75089;BME280;63673;49.928;8.150;2023-02-28T03:38:20;1000.97;;;-1.97;100
75089;BME280;63673;49.928;8.150;2023-02-28T03:39:21;1000.96;;;-1.99;100
75089;BME280;63673;49.928;8.150;2023-02-28T03:40:23;1000.98;;;-1.99;100
75089;BME280;63673;49.928;8.150;2023-02-28T03:41:25;1000.95;;;-1.99;100
75089;BME280;63673;49.928;8.150;2023-02-28T03:42:26;1001.02;;;-1.99;100
75089;BME280;63673;49.928;8.150;2023-02-28T03:43:28;1000.99;;;-2.01;100
75089;BME280;63673;49.928;8.150;2023-02-28T03:44:30;1000.97;;;-2;100
75089;BME280;63673;49.928;8.150;2023-02-28T03:45:32;1001.03;;;-2.01;100
75089;BME280;63673;49.928;8.150;2023-02-28T03:46:34;1000.99;;;-2.03;100
75089;BME280;63673;49.928;8.150;2023-02-28T03:47:35;1001.01;;;-2.02;100
75089;BME280;63673;49.928;8.150;2023-02-28T03:48:38;1000.98;;;-2.04;100
75089;BME280;63673;49.928;8.150;2023-02-28T03:49:39;1001;;;-2.04;100
75089;BME280;63673;49.928;8.150;2023-02-28T03:50:40;1001.04;;;-2.05;100
75089;BME280;63673;49.928;8.150;2023-02-28T03:51:41;1001.02;;;-2.06;100
75089;BME280;63673;49.928;8.150;2023-02-28T03:52:44;1001.05;;;-2.06;100
75089;BME280;63673;49.928;8.150;2023-02-28T03:53:45;1001.04;;;-2.05;100
75089;BME280;63673;49.928;8.150;2023-02-28T03:54:47;1001.03;;;-2.05;100
75089;BME280;63673;49.928;8.150;2023-02-28T03:55:50;1001.08;;;-2.05;100
75089;BME280;63673;49.928;8.150;2023-02-28T03:56:51;1001.11;;;-2.08;100
75089;BME280;63673;49.928;8.150;2023-02-28T03:57:53;1001;;;-2.06;100
75089;BME280;63673;49.928;8.150;2023-02-28T03:58:54;1001.07;;;-2.07;100
75089;BME280;63673;49.928;8.150;2023-02-28T03:59:56;1001.07;;;-2.08;100
75089;BME280;63673;49.928;8.150;2023-02-28T04:00:58;1001.06;;;-2.08;100
75089;BME280;63673;49.928;8.150;2023-02-28T04:01:58;1001.03;;;-2.08;100
75089;BME280;63673;49.928;8.150;2023-02-28T04:03:00;1001.01;;;-2.1;100
75089;BME280;63673;49.928;8.150;2023-02-28T04:04:02;1001.04;;;-2.1;100
75089;BME280;63673;49.928;8.150;2023-02-28T04:05:04;1001.02;;;-2.11;100
75089;BME280;63673;49.928;8.150;2023-02-28T04:06:06;1001.02;;;-2.12;100
75089;BME280;63673;49.928;8.150;2023-02-28T04:07:08;1001.07;;;-2.12;100
75089;BME280;63673;49.928;8.150;2023-02-28T04:08:09;1001.07;;;-2.12;100
75089;BME280;63673;49.928;8.150;2023-02-28T04:09:11;1001.06;;;-2.12;100
75089;BME280;63673;49.928;8.150;2023-02-28T04:10:12;1001.15;;;-2.13;100
75089;BME280;63673;49.928;8.150;2023-02-28T04:11:17;1001.14;;;-2.12;100
75089;BME280;63673;49.928;8.150;2023-02-28T04:12:16;1001.14;;;-2.11;100
75089;BME280;63673;49.928;8.150;2023-02-28T04:13:17;1001.11;;;-2.11;100
75089;BME280;63673;49.928;8.150;2023-02-28T04:14:19;1001.15;;;-2.11;100
75089;BME280;63673;49.928;8.150;2023-02-28T04:15:21;1001.11;;;-2.12;100
75089;BME280;63673;49.928;8.150;2023-02-28T04:16:23;1001.09;;;-2.1;100
75089;BME280;63673;49.928;8.150;2023-02-28T04:17:24;1001.15;;;-2.12;100
75089;BME280;63673;49.928;8.150;2023-02-28T04:18:26;1001.06;;;-2.11;100
75089;BME280;63673;49.928;8.150;2023-02-28T04:19:28;1001.08;;;-2.12;100
75089;BME280;63673;49.928;8.150;2023-02-28T04:20:30;1001.09;;;-2.12;100
75089;BME280;63673;49.928;8.150;2023-02-28T04:21:32;1001.14;;;-2.13;100
75089;BME280;63673;49.928;8.150;2023-02-28T04:22:33;1001.14;;;-2.12;100
75089;BME280;63673;49.928;8.150;2023-02-28T04:23:35;1001.14;;;-2.14;100
75089;BME280;63673;49.928;8.150;2023-02-28T04:24:37;1001.11;;;-2.13;100
75089;BME280;63673;49.928;8.150;2023-02-28T04:25:38;1001.13;;;-2.14;100
75089;BME280;63673;49.928;8.150;2023-02-28T04:26:41;1001.17;;;-2.16;100
75089;BME280;63673;49.928;8.150;2023-02-28T04:27:42;1001.14;;;-2.16;100
75089;BME280;63673;49.928;8.150;2023-02-28T04:28:43;1001.12;;;-2.16;100
75089;BME280;63673;49.928;8.150;2023-02-28T04:29:45;1001.12;;;-2.16;100
75089;BME280;63673;49.928;8.150;2023-02-28T04:30:47;1001.08;;;-2.17;100
75089;BME280;63673;49.928;8.150;2023-02-28T04:31:49;1001.15;;;-2.16;100
75089;BME280;63673;49.928;8.150;2023-02-28T04:32:50;1001.04;;;-2.18;100
75089;BME280;63673;49.928;8.150;2023-02-28T04:33:52;1001.07;;;-2.19;100
75089;BME280;63673;49.928;8.150;2023-02-28T04:34:54;1001.14;;;-2.2;100
75089;BME280;63673;49.928;8.150;2023-02-28T04:35:59;1001.06;;;-2.21;100
75089;BME280;63673;49.928;8.150;2023-02-28T04:36:57;1001.01;;;-2.21;100
75089;BME280;63673;49.928;8.150;2023-02-28T04:37:59;1001.09;;;-2.21;100
75089;BME280;63673;49.928;8.150;2023-02-28T04:39:01;1001.05;;;-2.2;100
75089;BME280;63673;49.928;8.150;2023-02-28T04:40:03;1001.09;;;-2.19;100
75089;BME280;63673;49.928;8.150;2023-02-28T04:41:04;1001.13;;;-2.22;100
75089;BME280;63673;49.928;8.150;2023-02-28T04:42:06;1001.07;;;-2.22;100
75089;BME280;63673;49.928;8.150;2023-02-28T04:43:08;1001.07;;;-2.22;100
75089;BME280;63673;49.928;8.150;2023-02-28T04:44:09;1001.07;;;-2.23;100
75089;BME280;63673;49.928;8.150;2023-02-28T04:45:11;1001.09;;;-2.22;100
75089;BME280;63673;49.928;8.150;2023-02-28T04:46:13;1001.05;;;-2.22;100
75089;BME280;63673;49.928;8.150;2023-02-28T04:47:15;1001.05;;;-2.22;100
75089;BME280;63673;49.928;8.150;2023-02-28T04:48:16;1001.1;;;-2.23;100
75089;BME280;63673;49.928;8.150;2023-02-28T04:49:18;1001.01;;;-2.24;100
75089;BME280;63673;49.928;8.150;2023-02-28T04:50:20;1000.97;;;-2.24;100
75089;BME280;63673;49.928;8.150;2023-02-28T04:51:22;1001.1;;;-2.23;100
75089;BME280;63673;49.928;8.150;2023-02-28T04:52:23;1001;;;-2.24;100
75089;BME280;63673;49.928;8.150;2023-02-28T04:53:25;1001.02;;;-2.24;100
75089;BME280;63673;49.928;8.150;2023-02-28T04:54:27;1001.05;;;-2.26;100
75089;BME280;63673;49.928;8.150;2023-02-28T04:55:29;1001.01;;;-2.26;100
75089;BME280;63673;49.928;8.150;2023-02-28T04:56:30;1000.9;;;-2.27;100
75089;BME280;63673;49.928;8.150;2023-02-28T04:57:32;1001.02;;;-2.27;100
75089;BME280;63673;49.928;8.150;2023-02-28T04:58:34;1001.05;;;-2.26;100
75089;BME280;63673;49.928;8.150;2023-02-28T04:59:36;1001;;;-2.26;100
75089;BME280;63673;49.928;8.150;2023-02-28T05:00:37;1001.01;;;-2.23;100
75089;BME280;63673;49.928;8.150;2023-02-28T05:01:39;1001.07;;;-2.25;100
75089;BME280;63673;49.928;8.150;2023-02-28T05:02:41;1001.02;;;-2.23;100
75089;BME280;63673;49.928;8.150;2023-02-28T05:03:43;1000.97;;;-2.25;100
75089;BME280;63673;49.928;8.150;2023-02-28T05:04:44;1001.05;;;-2.25;100
75089;BME280;63673;49.928;8.150;2023-02-28T05:05:46;1001.07;;;-2.26;100
75089;BME280;63673;49.928;8.150;2023-02-28T05:06:48;1001.02;;;-2.26;100
75089;BME280;63673;49.928;8.150;2023-02-28T05:07:50;1000.97;;;-2.26;100
75089;BME280;63673;49.928;8.150;2023-02-28T05:08:51;1001.03;;;-2.26;100
75089;BME280;63673;49.928;8.150;2023-02-28T05:09:53;1001.03;;;-2.28;100
75089;BME280;63673;49.928;8.150;2023-02-28T05:10:55;1001.11;;;-2.28;100
75089;BME280;63673;49.928;8.150;2023-02-28T05:11:56;1001.07;;;-2.28;100
75089;BME280;63673;49.928;8.150;2023-02-28T05:12:58;1001.06;;;-2.28;100
75089;BME280;63673;49.928;8.150;2023-02-28T05:14:00;1001.08;;;-2.3;100
75089;BME280;63673;49.928;8.150;2023-02-28T05:15:02;1001.04;;;-2.29;100
75089;BME280;63673;49.928;8.150;2023-02-28T05:16:03;1001.12;;;-2.28;100
75089;BME280;63673;49.928;8.150;2023-02-28T05:17:05;1001.05;;;-2.28;100
75089;BME280;63673;49.928;8.150;2023-02-28T05:18:07;1001.05;;;-2.3;100
75089;BME280;63673;49.928;8.150;2023-02-28T05:19:08;1001.08;;;-2.28;100
75089;BME280;63673;49.928;8.150;2023-02-28T05:20:10;1001.08;;;-2.28;100
75089;BME280;63673;49.928;8.150;2023-02-28T05:21:19;1001.03;;;-2.27;100
75089;BME280;63673;49.928;8.150;2023-02-28T05:22:14;1001.01;;;-2.29;100
75089;BME280;63673;49.928;8.150;2023-02-28T05:23:15;1001.08;;;-2.29;100
75089;BME280;63673;49.928;8.150;2023-02-28T05:24:17;1001.06;;;-2.3;100
75089;BME280;63673;49.928;8.150;2023-02-28T05:25:20;1001.05;;;-2.3;100
75089;BME280;63673;49.928;8.150;2023-02-28T05:26:21;1001.06;;;-2.31;100
75089;BME280;63673;49.928;8.150;2023-02-28T05:27:22;1001.06;;;-2.31;100
75089;BME280;63673;49.928;8.150;2023-02-28T05:28:24;1001.03;;;-2.31;100
75089;BME280;63673;49.928;8.150;2023-02-28T05:29:26;1001.09;;;-2.33;100
75089;BME280;63673;49.928;8.150;2023-02-28T05:30:27;1001.1;;;-2.31;100
75089;BME280;63673;49.928;8.150;2023-02-28T05:31:29;1001.04;;;-2.29;100
75089;BME280;63673;49.928;8.150;2023-02-28T05:32:31;1001.09;;;-2.29;100
75089;BME280;63673;49.928;8.150;2023-02-28T05:33:33;1001.11;;;-2.3;100
75089;BME280;63673;49.928;8.150;2023-02-28T05:34:35;1001.03;;;-2.3;100
75089;BME280;63673;49.928;8.150;2023-02-28T05:35:36;1001.1;;;-2.29;100
75089;BME280;63673;49.928;8.150;2023-02-28T05:36:38;1001.06;;;-2.31;100
75089;BME280;63673;49.928;8.150;2023-02-28T05:37:40;1001.21;;;-2.29;100
75089;BME280;63673;49.928;8.150;2023-02-28T05:38:41;1001.16;;;-2.31;100
75089;BME280;63673;49.928;8.150;2023-02-28T05:39:43;1001.17;;;-2.28;100
75089;BME280;63673;49.928;8.150;2023-02-28T05:40:45;1001.14;;;-2.3;100